createdAt,value
2018-01-15T00:02:00.807Z,99.00
2018-01-15T00:04:30.856Z,99.10
2018-01-15T00:07:02.191Z,99.00
2018-01-15T00:09:31.496Z,99.10
2018-01-15T00:12:02.977Z,99.10
2018-01-15T00:14:32.614Z,99.10
2018-01-15T00:17:02.065Z,99.00
2018-01-15T00:19:32.091Z,99.10
2018-01-15T00:22:03.541Z,99.10
2018-01-15T00:24:38.539Z,99.60
2018-01-15T00:27:11.576Z,99.00
2018-01-15T00:29:43.239Z,99.00
2018-01-15T00:32:16.110Z,98.90
2018-01-15T00:34:46.158Z,98.70
2018-01-15T00:37:15.800Z,98.60
2018-01-15T00:39:47.908Z,98.70
2018-01-15T00:42:20.795Z,98.80
2018-01-15T00:44:53.263Z,98.60
2018-01-15T00:47:23.109Z,98.60
2018-01-15T00:49:55.407Z,98.90
2018-01-15T00:52:28.163Z,98.90
2018-01-15T00:54:57.682Z,98.80
2018-01-15T00:57:27.467Z,98.90
2018-01-15T00:59:58.368Z,98.90
2018-01-15T01:02:32.226Z,98.90
2018-01-15T01:05:02.672Z,98.90
2018-01-15T01:07:32.341Z,99.10
2018-01-15T01:10:01.538Z,99.10
2018-01-15T01:12:31.718Z,98.80
2018-01-15T01:15:04.810Z,98.80
2018-01-15T01:17:37.212Z,98.70
2018-01-15T01:20:12.146Z,98.70
2018-01-15T01:22:47.048Z,98.70
2018-01-15T01:25:22.111Z,98.60
2018-01-15T01:27:53.990Z,98.60
2018-01-15T01:30:24.630Z,98.60
2018-01-15T01:32:53.452Z,98.20
2018-01-15T01:35:23.477Z,98.40
2018-01-15T01:38:02.837Z,98.80
2018-01-15T01:40:34.662Z,98.50
2018-01-15T01:43:04.931Z,98.50
2018-01-15T01:45:34.597Z,98.80
2018-01-15T01:52:05.491Z,98.40
2018-01-15T01:54:42.220Z,98.60
2018-01-15T01:57:13.871Z,98.60
2018-01-15T01:59:47.218Z,98.80
2018-01-15T02:02:21.558Z,99.00
2018-01-15T02:04:51.740Z,98.80
2018-01-15T02:07:21.583Z,99.00
2018-01-15T02:09:51.052Z,99.00
2018-01-15T02:12:21.183Z,99.00
2018-01-15T02:14:54.815Z,99.10
2018-01-15T02:17:28.668Z,99.40
2018-01-15T02:19:58.079Z,99.40
2018-01-15T02:22:28.579Z,99.40
2018-01-15T02:24:57.875Z,99.30
2018-01-15T02:27:27.613Z,99.00
2018-01-15T02:29:58.911Z,99.10
2018-01-15T02:32:32.909Z,99.10
2018-01-15T02:35:06.793Z,99.30
2018-01-15T02:37:37.443Z,99.40
2018-01-15T02:40:09.890Z,99.50
2018-01-15T02:42:39.439Z,99.60
2018-01-15T02:45:10.218Z,99.70
2018-01-15T02:48:20.472Z,99.90
2018-01-15T02:50:49.596Z,99.90
2018-01-15T02:53:20.239Z,99.90
2018-01-15T02:55:52.845Z,99.90
2018-01-15T02:58:26.681Z,99.90
2018-01-15T03:00:58.916Z,99.90
2018-01-15T03:03:28.879Z,99.90
2018-01-15T03:05:58.431Z,99.90
2018-01-15T03:08:28.861Z,99.90
2018-01-15T03:10:57.941Z,99.90
2018-01-15T03:13:30.496Z,99.90
2018-01-15T03:16:04.425Z,99.90
2018-01-15T03:18:34.438Z,99.90
2018-01-15T03:21:04.329Z,99.90
2018-01-15T03:23:34.617Z,99.90
2018-01-15T03:26:04.223Z,99.90
2018-01-15T03:28:36.003Z,99.90
2018-01-15T03:31:12.636Z,99.90
2018-01-15T03:33:48.287Z,99.90
2018-01-15T03:36:19.398Z,99.90
2018-01-15T03:38:50.470Z,99.90
2018-01-15T03:41:21.317Z,99.90
2018-01-15T03:43:52.755Z,99.90
2018-01-15T03:46:21.801Z,99.90
2018-01-15T03:48:52.614Z,99.90
2018-01-15T03:51:24.336Z,99.90
2018-01-15T03:53:56.088Z,99.90
2018-01-15T03:56:27.673Z,99.90
2018-01-15T03:58:58.723Z,99.90
2018-01-15T04:01:28.998Z,99.90
2018-01-15T04:04:00.953Z,99.90
2018-01-15T04:06:31.702Z,99.90
2018-01-15T04:09:04.192Z,99.90
2018-01-15T04:11:38.531Z,99.90
2018-01-15T04:14:11.318Z,99.90
2018-01-15T04:16:46.871Z,99.90
2018-01-15T04:19:57.625Z,99.90
2018-01-15T04:22:26.648Z,99.90
2018-01-15T04:24:56.802Z,99.90
2018-01-15T04:27:29.385Z,99.90
2018-01-15T04:30:02.512Z,99.90
2018-01-15T04:32:33.792Z,99.90
2018-01-15T04:35:03.280Z,99.90
2018-01-15T04:37:33.097Z,99.90
2018-01-15T04:40:04.518Z,99.90
2018-01-15T04:42:34.956Z,99.90
2018-01-15T04:45:06.988Z,99.90
2018-01-15T04:47:36.678Z,99.90
2018-01-15T04:50:07.730Z,99.90
2018-01-15T04:52:36.570Z,99.90
2018-01-15T04:55:07.027Z,99.90
2018-01-15T04:57:40.176Z,99.90
2018-01-15T05:00:14.874Z,99.90
2018-01-15T05:02:45.066Z,99.90
2018-01-15T05:05:17.665Z,99.90
2018-01-15T05:07:46.959Z,99.90
2018-01-15T05:10:15.923Z,99.90
2018-01-15T05:12:47.226Z,99.90
2018-01-15T05:15:20.265Z,99.90
2018-01-15T05:17:54.096Z,99.90
2018-01-15T05:20:24.749Z,99.90
2018-01-15T05:22:54.951Z,99.90
2018-01-15T05:25:24.460Z,99.90
2018-01-15T05:27:56.928Z,99.90
2018-01-15T05:30:27.133Z,99.90
2018-01-15T05:32:59.679Z,99.90
2018-01-15T05:35:29.933Z,99.90
2018-01-15T05:38:05.219Z,99.90
2018-01-15T05:40:42.780Z,99.90
2018-01-15T05:43:23.393Z,99.90
2018-01-15T05:45:55.561Z,99.90
2018-01-15T05:48:24.854Z,99.90
2018-01-15T05:51:31.632Z,99.90
2018-01-15T05:54:01.351Z,99.90
2018-01-15T05:56:32.497Z,99.90
2018-01-15T05:59:04.740Z,99.90
2018-01-15T06:01:35.998Z,99.90
2018-01-15T06:04:06.720Z,99.90
2018-01-15T06:06:59.702Z,99.90
2018-01-15T06:09:29.902Z,99.90
2018-01-15T06:11:59.422Z,99.90
2018-01-15T06:14:32.125Z,99.90
2018-01-15T06:17:03.943Z,99.90
2018-01-15T06:19:37.850Z,99.90
2018-01-15T06:22:28.557Z,99.90
2018-01-15T06:24:58.739Z,99.90
2018-01-15T06:27:28.397Z,99.90
2018-01-15T06:29:59.856Z,99.90
2018-01-15T06:32:31.523Z,99.90
2018-01-15T06:35:00.970Z,99.90
2018-01-15T06:37:30.833Z,99.90
2018-01-15T06:40:01.140Z,99.90
2018-01-15T06:42:34.299Z,99.90
2018-01-15T06:45:05.873Z,99.90
2018-01-15T06:47:40.068Z,99.90
2018-01-15T06:50:08.876Z,99.90
2018-01-15T06:53:18.468Z,99.90
2018-01-15T06:55:56.148Z,99.90
2018-01-15T06:58:24.696Z,99.90
2018-01-15T07:00:54.331Z,99.90
2018-01-15T07:03:27.704Z,99.90
2018-01-15T07:06:38.360Z,99.90
2018-01-15T07:09:08.329Z,99.90
2018-01-15T07:11:40.833Z,99.90
2018-01-15T07:14:13.374Z,99.90
2018-01-15T07:16:44.485Z,99.90
2018-01-15T07:19:23.545Z,99.90
2018-01-15T07:21:53.598Z,99.90
2018-01-15T07:24:24.674Z,99.90
2018-01-15T07:26:58.331Z,99.90
2018-01-15T07:29:27.362Z,99.90
2018-01-15T07:32:05.983Z,99.90
2018-01-15T07:34:35.615Z,99.90
2018-01-15T07:37:47.589Z,99.90
2018-01-15T07:40:16.395Z,99.90
2018-01-15T07:42:46.630Z,99.90
2018-01-15T07:45:16.962Z,99.90
2018-01-15T07:47:52.824Z,99.90
2018-01-15T07:50:26.619Z,99.90
2018-01-15T07:52:57.276Z,99.90
2018-01-15T07:55:26.454Z,99.90
2018-01-15T07:57:55.474Z,99.90
2018-01-15T08:00:25.363Z,99.90
2018-01-15T08:02:58.181Z,99.90
2018-01-15T08:05:27.365Z,99.90
2018-01-15T08:08:01.342Z,99.90
2018-01-15T08:10:31.919Z,99.90
2018-01-15T08:13:01.785Z,99.90
2018-01-15T08:15:32.251Z,99.90
2018-01-15T08:18:02.885Z,99.90
2018-01-15T08:20:35.976Z,99.90
2018-01-15T08:23:08.239Z,99.90
2018-01-15T08:25:37.378Z,99.90
2018-01-15T08:28:06.351Z,99.90
2018-01-15T08:30:37.078Z,99.90
2018-01-15T08:33:07.018Z,99.90
2018-01-15T08:35:39.939Z,99.90
2018-01-15T08:38:13.471Z,99.90
2018-01-15T08:40:44.009Z,99.90
2018-01-15T08:43:14.405Z,99.90
2018-01-15T08:45:46.070Z,99.90
2018-01-15T08:48:17.766Z,99.90
2018-01-15T08:50:49.617Z,99.90
2018-01-15T08:53:31.238Z,99.90
2018-01-15T08:56:03.436Z,99.90
2018-01-15T08:58:36.639Z,99.90
2018-01-15T09:01:11.705Z,99.90
2018-01-15T09:03:43.346Z,99.90
2018-01-15T09:06:14.282Z,99.90
2018-01-15T09:08:47.292Z,99.90
2018-01-15T09:11:18.668Z,99.90
2018-01-15T09:13:47.762Z,99.90
2018-01-15T09:16:20.403Z,99.90
2018-01-15T09:18:50.229Z,99.90
2018-01-15T09:21:22.361Z,99.90
2018-01-15T09:23:54.262Z,99.90
2018-01-15T09:26:26.133Z,99.90
2018-01-15T09:28:55.983Z,99.90
2018-01-15T09:31:26.057Z,99.90
2018-01-15T09:34:07.615Z,99.90
2018-01-15T09:36:38.751Z,99.90
2018-01-15T09:39:48.303Z,99.90
2018-01-15T09:42:19.401Z,99.90
2018-01-15T09:44:48.434Z,99.90
2018-01-15T09:47:22.000Z,99.90
2018-01-15T09:49:54.668Z,99.90
2018-01-15T09:52:29.099Z,99.90
2018-01-15T09:55:04.463Z,99.90
2018-01-15T09:57:35.103Z,99.90
2018-01-15T10:00:04.565Z,99.90
2018-01-15T10:15:29.446Z,99.90
2018-01-15T10:17:59.983Z,99.90
2018-01-15T10:20:32.024Z,99.90
2018-01-15T10:23:05.447Z,99.90
2018-01-15T10:25:38.530Z,99.90
2018-01-15T10:28:14.373Z,99.90
2018-01-15T10:30:46.159Z,99.90
2018-01-15T10:33:15.977Z,99.90
2018-01-15T10:35:44.767Z,99.90
2018-01-15T10:38:22.646Z,99.90
2018-01-15T10:40:52.070Z,99.90
2018-01-15T10:43:21.256Z,99.90
2018-01-15T10:45:50.698Z,99.90
2018-01-15T10:48:22.611Z,99.90
2018-01-15T10:50:51.855Z,99.90
2018-01-15T10:53:21.442Z,99.90
2018-01-15T10:55:51.267Z,99.90
2018-01-15T10:58:21.800Z,99.90
2018-01-15T11:00:54.950Z,99.90
2018-01-15T11:03:26.136Z,99.90
2018-01-15T11:05:59.337Z,99.90
2018-01-15T11:08:37.625Z,99.90
2018-01-15T11:11:11.000Z,99.90
2018-01-15T11:13:48.911Z,99.90
2018-01-15T11:16:21.266Z,99.90
2018-01-15T11:18:54.419Z,99.90
2018-01-15T11:21:24.329Z,99.90
2018-01-15T11:23:55.897Z,99.90
2018-01-15T11:26:27.010Z,99.90
2018-01-15T11:28:56.282Z,99.90
2018-01-15T11:31:27.112Z,99.90
2018-01-15T11:33:57.929Z,99.90
2018-01-15T11:36:28.402Z,99.90
2018-01-15T11:38:57.631Z,99.90
2018-01-15T11:41:27.244Z,99.90
2018-01-15T11:43:56.931Z,99.90
2018-01-15T11:46:26.575Z,99.90
2018-01-15T11:48:58.677Z,99.90
2018-01-15T11:51:31.337Z,99.90
2018-01-15T11:54:03.024Z,99.90
2018-01-15T11:56:32.543Z,99.90
2018-01-15T11:59:02.134Z,99.90
2018-01-15T12:01:31.733Z,99.90
2018-01-15T12:04:00.735Z,99.90
2018-01-15T12:06:30.850Z,99.90
2018-01-15T12:09:03.727Z,99.90
2018-01-15T12:12:15.267Z,99.90
2018-01-15T12:14:46.998Z,99.90
2018-01-15T12:17:18.812Z,99.90
2018-01-15T12:19:50.486Z,99.90
2018-01-15T12:22:23.958Z,99.90
2018-01-15T12:24:53.699Z,99.90
2018-01-15T12:27:27.152Z,99.90
2018-01-15T12:29:59.060Z,99.90
2018-01-15T12:32:27.878Z,99.90
2018-01-15T12:34:56.497Z,99.90
2018-01-15T12:37:29.155Z,99.90
2018-01-15T12:40:04.757Z,99.90
2018-01-15T12:42:40.167Z,99.90
2018-01-15T12:45:17.599Z,99.90
2018-01-15T12:47:49.667Z,99.90
2018-01-15T12:50:25.596Z,99.90
2018-01-15T12:52:57.088Z,99.90
2018-01-15T12:56:08.708Z,99.90
2018-01-15T12:58:37.853Z,99.90
2018-01-15T13:01:07.053Z,99.90
2018-01-15T13:03:39.357Z,99.90
2018-01-15T13:06:08.455Z,99.90
2018-01-15T13:11:49.107Z,99.90
2018-01-15T13:14:18.887Z,99.90
2018-01-15T13:16:50.698Z,99.90
2018-01-15T13:19:20.326Z,99.90
2018-01-15T13:21:51.913Z,99.90
2018-01-15T13:24:26.029Z,99.90
2018-01-15T13:30:58.024Z,99.90
2018-01-15T13:33:27.751Z,99.90
2018-01-15T13:35:57.438Z,99.90
2018-01-15T13:38:27.965Z,99.90
2018-01-15T13:40:58.471Z,99.90
2018-01-15T13:43:31.018Z,99.90
2018-01-15T13:46:07.514Z,99.90
2018-01-15T13:48:37.524Z,99.90
2018-01-15T13:51:07.783Z,99.90
2018-01-15T13:53:37.594Z,99.90
2018-01-15T13:59:56.365Z,99.90
2018-01-15T14:02:25.845Z,99.90
2018-01-15T14:05:00.289Z,99.90
2018-01-15T14:07:49.309Z,99.90
2018-01-15T14:10:22.634Z,99.90
2018-01-15T14:15:44.503Z,99.90
2018-01-15T14:18:17.822Z,99.90
2018-01-15T14:20:48.621Z,99.90
2018-01-15T14:23:17.980Z,99.90
2018-01-15T14:25:47.124Z,99.90
2018-01-15T14:41:48.814Z,99.90
2018-01-15T14:44:19.054Z,99.90
2018-01-15T14:46:48.994Z,99.90
2018-01-15T14:49:19.780Z,99.90
2018-01-15T14:51:48.526Z,99.90
2018-01-15T14:54:23.550Z,99.90
2018-01-15T14:56:52.949Z,99.90
2018-01-15T14:59:37.444Z,99.90
2018-01-15T15:02:07.947Z,99.90
2018-01-15T15:04:38.943Z,99.90
2018-01-15T15:07:09.902Z,99.90
2018-01-15T15:09:41.646Z,99.90
2018-01-15T15:12:12.651Z,99.90
2018-01-15T15:14:42.622Z,99.90
2018-01-15T15:17:15.537Z,99.90
2018-01-15T15:19:57.822Z,99.90
2018-01-15T15:22:29.838Z,99.90
2018-01-15T15:25:01.435Z,99.90
2018-01-15T15:30:56.103Z,99.90
2018-01-15T15:33:27.947Z,99.90
2018-01-15T15:35:59.015Z,99.90
2018-01-15T15:38:28.683Z,99.90
2018-01-15T15:40:59.886Z,99.90
2018-01-15T15:44:01.232Z,99.90
2018-01-15T15:46:32.424Z,99.90
2018-01-15T15:49:03.704Z,99.90
2018-01-15T15:51:34.353Z,99.90
2018-01-15T15:54:04.756Z,99.90
2018-01-15T15:56:34.555Z,99.90
2018-01-15T15:59:10.800Z,99.90
2018-01-15T16:01:41.410Z,99.90
2018-01-15T16:04:14.036Z,99.90
2018-01-15T16:06:43.915Z,99.90
2018-01-15T16:09:18.661Z,99.90
2018-01-15T16:11:50.945Z,99.90
2018-01-15T16:14:24.123Z,99.90
2018-01-15T16:16:53.974Z,99.90
2018-01-15T16:19:23.387Z,99.90
2018-01-15T16:22:09.019Z,99.90
2018-01-15T16:24:45.680Z,99.90
2018-01-15T16:27:42.965Z,99.90
2018-01-15T16:30:13.246Z,99.90
2018-01-15T16:32:43.214Z,99.90
2018-01-15T16:35:13.947Z,99.90
2018-01-15T16:37:45.995Z,99.90
2018-01-15T16:40:16.606Z,99.90
2018-01-15T16:42:46.501Z,99.90
2018-01-15T16:45:54.654Z,99.90
2018-01-15T16:48:28.619Z,99.90
2018-01-15T16:51:00.568Z,99.90
2018-01-15T16:53:32.786Z,99.90
2018-01-15T16:56:04.709Z,99.90
2018-01-15T16:58:41.339Z,99.90
2018-01-15T17:01:19.413Z,99.90
2018-01-15T17:03:49.140Z,99.90
2018-01-15T17:06:21.371Z,99.90
2018-01-15T17:08:50.587Z,99.90
2018-01-15T17:11:21.937Z,99.90
2018-01-15T17:13:52.353Z,99.90
2018-01-15T17:18:22.654Z,99.90
2018-01-15T17:20:54.884Z,99.90
2018-01-15T17:23:29.208Z,99.90
2018-01-15T17:26:03.485Z,99.90
2018-01-15T17:28:35.077Z,99.90
2018-01-15T17:31:07.566Z,99.90
2018-01-15T17:33:38.360Z,99.90
2018-01-15T17:36:07.330Z,99.90
2018-01-15T17:38:39.628Z,99.90
2018-01-15T17:41:12.815Z,99.90
2018-01-15T17:43:41.963Z,99.90
2018-01-15T17:46:16.379Z,99.90
2018-01-15T17:48:49.384Z,99.90
2018-01-15T17:51:22.181Z,99.90
2018-01-15T17:53:55.450Z,99.90
2018-01-15T17:56:28.706Z,99.90
2018-01-15T17:59:00.968Z,99.90
2018-01-15T18:01:31.470Z,99.90
2018-01-15T18:04:02.123Z,99.90
2018-01-15T18:06:36.897Z,99.90
2018-01-15T18:09:12.591Z,99.90
2018-01-15T18:11:46.136Z,99.90
2018-01-15T18:14:18.988Z,99.90
2018-01-15T18:16:58.009Z,99.90
2018-01-15T18:19:28.498Z,99.90
2018-01-15T18:22:01.798Z,99.90
2018-01-15T18:24:35.506Z,99.90
2018-01-15T18:27:09.762Z,99.90
2018-01-15T18:29:43.608Z,99.90
2018-01-15T18:32:19.052Z,99.90
2018-01-15T18:34:50.077Z,99.90
2018-01-15T18:37:22.377Z,99.90
2018-01-15T18:39:53.461Z,99.90
2018-01-15T18:42:24.405Z,99.90
2018-01-15T18:44:54.601Z,99.90
2018-01-15T18:47:25.413Z,99.90
2018-01-15T18:49:56.589Z,99.90
2018-01-15T18:52:26.467Z,99.90
2018-01-15T18:54:58.612Z,99.90
2018-01-15T18:57:28.902Z,99.90
2018-01-15T18:59:59.147Z,99.90
2018-01-15T19:02:30.412Z,99.90
2018-01-15T19:05:01.283Z,99.90
2018-01-15T19:07:33.070Z,99.90
2018-01-15T19:10:04.122Z,99.90
2018-01-15T19:12:32.425Z,99.90
2018-01-15T19:15:05.906Z,99.90
2018-01-15T19:17:40.834Z,99.90
2018-01-15T19:20:12.482Z,99.90
2018-01-15T19:22:41.482Z,99.90
2018-01-15T19:25:13.394Z,99.90
2018-01-15T19:27:45.941Z,99.90
2018-01-15T19:30:18.828Z,99.90
2018-01-15T19:32:50.962Z,99.90
2018-01-15T19:35:39.439Z,99.90
2018-01-15T19:38:18.998Z,99.90
2018-01-15T19:40:51.734Z,99.90
2018-01-15T19:44:03.773Z,99.90
2018-01-15T19:50:06.083Z,99.90
2018-01-15T19:52:59.596Z,99.90
2018-01-15T19:55:41.311Z,99.90
2018-01-15T19:58:20.182Z,99.90
2018-01-15T20:04:07.397Z,99.90
2018-01-15T20:06:44.813Z,99.90
2018-01-15T20:09:19.026Z,99.90
2018-01-15T20:11:50.291Z,99.90
2018-01-15T20:14:21.558Z,99.90
2018-01-15T20:16:52.836Z,99.90
2018-01-15T20:19:23.603Z,99.90
2018-01-15T20:21:55.383Z,99.90
2018-01-15T20:24:26.611Z,99.90
2018-01-15T20:26:56.736Z,99.90
2018-01-15T20:29:28.320Z,99.90
2018-01-15T20:32:01.076Z,99.90
2018-01-15T20:34:36.397Z,99.90
2018-01-15T20:37:12.774Z,99.90
2018-01-15T20:39:52.384Z,99.90
2018-01-15T20:42:22.812Z,99.90
2018-01-15T20:44:56.506Z,99.90
2018-01-15T20:47:36.214Z,99.90
2018-01-15T20:50:11.082Z,99.90
2018-01-15T20:52:40.653Z,99.90
2018-01-15T20:55:12.260Z,99.90
2018-01-15T20:57:41.401Z,99.90
2018-01-15T21:00:10.372Z,99.90
2018-01-15T21:02:52.937Z,99.90
2018-01-15T21:05:26.163Z,99.90
2018-01-15T21:07:57.437Z,99.90
2018-01-15T21:10:26.647Z,99.90
2018-01-15T21:12:56.945Z,99.90
2018-01-15T21:15:31.056Z,99.90
2018-01-15T21:18:06.427Z,99.90
2018-01-15T21:20:38.892Z,99.90
2018-01-15T21:23:10.044Z,99.90
2018-01-15T21:25:40.750Z,99.90
2018-01-15T21:28:09.941Z,99.90
2018-01-15T21:30:41.712Z,99.90
2018-01-15T21:36:31.345Z,99.90
2018-01-15T21:39:03.158Z,99.90
2018-01-15T21:41:32.077Z,99.90
2018-01-15T21:44:03.804Z,99.90
2018-01-15T21:46:34.849Z,99.90
2018-01-15T21:49:07.136Z,99.90
2018-01-15T21:51:36.770Z,99.90
2018-01-15T21:54:06.701Z,99.90
2018-01-15T21:56:41.574Z,99.90
2018-01-15T21:59:10.723Z,99.90
2018-01-15T22:01:41.873Z,99.90
2018-01-15T22:04:13.578Z,99.90
2018-01-15T22:06:45.591Z,99.90
2018-01-15T22:09:15.705Z,99.90
2018-01-15T22:11:49.850Z,99.90
2018-01-15T22:14:22.661Z,99.90
2018-01-15T22:16:56.977Z,99.90
2018-01-15T22:19:29.765Z,99.90
2018-01-15T22:22:04.544Z,99.90
2018-01-15T22:24:34.139Z,99.90
2018-01-15T22:27:05.079Z,99.90
2018-01-15T22:29:35.242Z,99.90
2018-01-15T22:32:06.558Z,99.90
2018-01-15T22:34:40.112Z,99.90
2018-01-15T22:37:10.533Z,99.90
2018-01-15T22:51:54.791Z,99.90
2018-01-15T22:54:26.703Z,99.90
2018-01-15T22:57:08.103Z,99.90
2018-01-15T22:59:42.078Z,99.90
2018-01-15T23:02:15.905Z,99.90
2018-01-15T23:05:02.768Z,99.90
2018-01-15T23:07:33.396Z,99.90
2018-01-15T23:10:05.917Z,99.90
2018-01-15T23:12:36.776Z,99.90
2018-01-15T23:15:10.018Z,99.90
2018-01-15T23:17:42.001Z,99.90
2018-01-15T23:20:15.440Z,99.90
2018-01-15T23:22:45.019Z,99.90
2018-01-15T23:25:17.284Z,99.90
2018-01-15T23:27:53.429Z,99.90
2018-01-15T23:30:37.008Z,99.90
2018-01-15T23:33:12.024Z,99.90
2018-01-15T23:35:40.887Z,99.90
2018-01-15T23:38:10.001Z,99.90
2018-01-15T23:40:49.259Z,99.90
2018-01-15T23:43:20.413Z,99.90
2018-01-15T23:45:59.617Z,99.90
2018-01-15T23:48:43.243Z,99.90
2018-01-15T23:51:13.034Z,99.90
2018-01-15T23:53:47.152Z,99.90
2018-01-15T23:56:24.875Z,99.90
2018-01-15T23:58:57.998Z,99.90
